createdAt,value
2017-10-25T00:02:00.243Z,10.10
2017-10-25T00:04:28.524Z,10.13
2017-10-25T00:06:56.808Z,9.70
2017-10-25T00:09:25.743Z,9.80
2017-10-25T00:11:53.261Z,11.90
2017-10-25T00:14:20.799Z,10.57
2017-10-25T00:16:49.073Z,10.53
2017-10-25T00:19:16.572Z,11.23
2017-10-25T00:21:44.111Z,11.30
2017-10-25T00:24:12.725Z,12.73
2017-10-25T00:26:41.788Z,11.60
2017-10-25T00:29:10.082Z,11.70
2017-10-25T00:31:37.656Z,11.30
2017-10-25T00:34:05.160Z,12.27
2017-10-25T00:36:32.858Z,12.60
2017-10-25T00:39:00.401Z,12.23
2017-10-25T00:41:28.688Z,13.20
2017-10-25T00:43:56.260Z,14.57
2017-10-25T00:46:23.835Z,14.80
2017-10-25T00:48:51.497Z,16.57
2017-10-25T00:51:19.671Z,16.33
2017-10-25T00:53:47.262Z,15.83
2017-10-25T00:56:14.777Z,17.40
2017-10-25T00:58:42.347Z,17.40
2017-10-25T01:01:09.888Z,17.23
2017-10-25T01:03:38.486Z,17.27
2017-10-25T01:06:06.039Z,16.30
2017-10-25T01:08:33.552Z,17.63
2017-10-25T01:11:01.053Z,18.00
2017-10-25T01:13:28.852Z,17.60
2017-10-25T01:15:56.904Z,17.63
2017-10-25T01:18:24.414Z,17.07
2017-10-25T01:20:52.720Z,16.90
2017-10-25T01:23:20.300Z,16.23
2017-10-25T01:25:47.827Z,16.50
2017-10-25T01:28:16.130Z,15.57
2017-10-25T01:30:43.655Z,17.53
2017-10-25T01:33:11.944Z,16.03
2017-10-25T01:35:39.460Z,15.60
2017-10-25T01:38:06.970Z,16.17
2017-10-25T01:40:34.477Z,14.37
2017-10-25T01:43:02.039Z,14.80
2017-10-25T01:45:29.568Z,15.10
2017-10-25T01:47:57.094Z,13.30
2017-10-25T01:50:25.404Z,14.23
2017-10-25T01:52:54.563Z,13.30
2017-10-25T01:55:22.832Z,13.37
2017-10-25T01:57:51.122Z,12.70
2017-10-25T02:00:19.403Z,13.07
2017-10-25T02:02:47.000Z,13.77
2017-10-25T02:05:14.548Z,11.93
2017-10-25T02:07:42.080Z,12.37
2017-10-25T02:10:09.717Z,13.23
2017-10-25T02:12:38.398Z,12.27
2017-10-25T02:15:07.411Z,12.33
2017-10-25T02:17:35.695Z,11.70
2017-10-25T02:20:04.722Z,10.90
2017-10-25T02:22:32.739Z,12.83
2017-10-25T02:25:00.246Z,12.80
2017-10-25T02:27:27.777Z,13.47
2017-10-25T02:29:56.060Z,11.77
2017-10-25T02:32:24.069Z,12.43
2017-10-25T02:34:51.624Z,12.90
2017-10-25T02:37:19.127Z,12.80
2017-10-25T02:39:47.415Z,14.33
2017-10-25T02:42:15.437Z,13.03
2017-10-25T02:44:43.156Z,12.17
2017-10-25T02:47:11.445Z,11.50
2017-10-25T02:49:38.995Z,12.77
2017-10-25T02:52:06.599Z,12.67
2017-10-25T02:54:34.114Z,9.97
2017-10-25T02:57:01.651Z,12.13
2017-10-25T02:59:30.305Z,9.83
2017-10-25T03:01:57.819Z,10.53
2017-10-25T03:04:25.356Z,11.20
2017-10-25T03:06:53.654Z,12.00
2017-10-25T03:09:21.173Z,11.97
2017-10-25T03:11:49.407Z,10.10
2017-10-25T03:14:17.007Z,11.47
2017-10-25T03:16:44.531Z,11.63
2017-10-25T03:19:12.071Z,12.00
2017-10-25T03:21:39.586Z,11.27
2017-10-25T03:24:07.116Z,11.30
2017-10-25T03:26:34.973Z,12.10
2017-10-25T03:29:02.900Z,12.30
2017-10-25T03:31:31.195Z,13.07
2017-10-25T03:33:58.729Z,12.57
2017-10-25T03:36:27.010Z,13.17
2017-10-25T03:38:55.311Z,14.10
2017-10-25T03:41:22.831Z,12.13
2017-10-25T03:43:50.608Z,13.33
2017-10-25T03:46:18.885Z,14.93
2017-10-25T03:48:47.199Z,13.30
2017-10-25T03:51:14.705Z,15.63
2017-10-25T03:53:42.215Z,15.40
2017-10-25T03:56:09.801Z,14.47
2017-10-25T03:58:37.300Z,14.70
2017-10-25T04:01:05.574Z,14.63
2017-10-25T04:03:34.405Z,13.10
2017-10-25T04:06:01.968Z,13.40
2017-10-25T04:08:29.525Z,13.23
2017-10-25T04:10:57.079Z,13.60
2017-10-25T04:13:24.581Z,13.40
2017-10-25T04:15:52.103Z,13.53
2017-10-25T04:18:19.647Z,14.47
2017-10-25T04:20:47.179Z,14.50
2017-10-25T04:23:15.475Z,15.53
2017-10-25T04:25:43.018Z,14.67
2017-10-25T04:28:11.284Z,13.83
2017-10-25T04:30:40.072Z,14.50
2017-10-25T04:33:07.709Z,13.70
2017-10-25T04:35:35.187Z,13.80
2017-10-25T04:38:02.697Z,14.70
2017-10-25T04:40:30.249Z,14.00
2017-10-25T04:42:57.780Z,13.87
2017-10-25T04:45:26.166Z,13.50
2017-10-25T04:47:53.735Z,13.77
2017-10-25T04:50:21.272Z,14.70
2017-10-25T04:52:48.785Z,16.63
2017-10-25T04:55:16.339Z,14.43
2017-10-25T04:57:43.871Z,14.60
2017-10-25T05:00:11.407Z,14.53
2017-10-25T05:02:39.722Z,15.20
2017-10-25T05:05:07.229Z,13.90
2017-10-25T05:07:34.739Z,15.20
2017-10-25T05:10:03.029Z,14.50
2017-10-25T05:12:30.536Z,14.17
2017-10-25T05:14:58.827Z,13.40
2017-10-25T05:17:27.199Z,12.53
2017-10-25T05:19:55.483Z,14.03
2017-10-25T05:22:23.749Z,13.83
2017-10-25T05:24:52.067Z,12.30
2017-10-25T05:27:19.565Z,11.50
2017-10-25T05:29:47.082Z,12.17
2017-10-25T05:32:17.245Z,11.67
2017-10-25T05:34:48.438Z,10.20
2017-10-25T05:37:16.564Z,10.10
2017-10-25T05:39:46.648Z,10.63
2017-10-25T05:42:14.209Z,11.50
2017-10-25T05:44:41.720Z,11.60
2017-10-25T05:47:10.003Z,10.67
2017-10-25T05:49:37.526Z,10.90
2017-10-25T05:52:05.330Z,11.47
2017-10-25T05:54:33.190Z,10.87
2017-10-25T05:57:01.472Z,10.50
2017-10-25T05:59:29.011Z,10.23
2017-10-25T06:01:56.518Z,10.23
2017-10-25T06:04:24.252Z,11.40
2017-10-25T06:06:51.850Z,10.07
2017-10-25T06:09:19.368Z,10.93
2017-10-25T06:11:47.429Z,10.30
2017-10-25T06:14:15.152Z,9.80
2017-10-25T06:16:43.281Z,12.07
2017-10-25T06:19:10.868Z,10.60
2017-10-25T06:21:38.411Z,10.23
2017-10-25T06:24:05.961Z,10.63
2017-10-25T06:26:33.494Z,10.90
2017-10-25T06:29:01.080Z,11.67
2017-10-25T06:31:29.378Z,10.07
2017-10-25T06:33:56.915Z,10.97
2017-10-25T06:36:24.448Z,10.90
2017-10-25T06:38:52.829Z,9.50
2017-10-25T06:41:20.490Z,11.47
2017-10-25T06:43:48.058Z,10.30
2017-10-25T06:46:16.333Z,12.37
2017-10-25T06:48:44.617Z,10.90
2017-10-25T06:51:12.938Z,12.93
2017-10-25T06:53:40.464Z,11.43
2017-10-25T06:56:08.002Z,13.63
2017-10-25T06:58:37.093Z,11.50
2017-10-25T07:01:05.395Z,12.43
2017-10-25T07:03:34.454Z,11.80
2017-10-25T07:06:01.993Z,11.90
2017-10-25T07:08:30.312Z,11.30
2017-10-25T07:10:58.606Z,12.97
2017-10-25T07:13:26.147Z,11.30
2017-10-25T07:15:54.440Z,12.27
2017-10-25T07:18:22.825Z,11.20
2017-10-25T07:20:50.369Z,12.40
2017-10-25T07:23:18.663Z,12.00
2017-10-25T07:25:47.113Z,12.27
2017-10-25T07:28:14.644Z,11.93
2017-10-25T07:30:42.646Z,12.17
2017-10-25T07:33:10.347Z,12.40
2017-10-25T07:35:37.907Z,11.90
2017-10-25T07:38:05.421Z,11.27
2017-10-25T07:40:32.943Z,12.23
2017-10-25T07:43:00.496Z,11.63
2017-10-25T07:45:28.020Z,9.60
2017-10-25T07:47:57.129Z,11.50
2017-10-25T07:50:25.553Z,10.77
2017-10-25T07:52:53.869Z,11.10
2017-10-25T07:55:22.136Z,12.40
2017-10-25T07:57:50.441Z,12.37
2017-10-25T08:00:17.952Z,11.57
2017-10-25T08:02:45.476Z,10.47
2017-10-25T08:05:13.031Z,10.03
2017-10-25T08:07:41.101Z,11.00
2017-10-25T08:10:08.629Z,11.50
2017-10-25T08:12:36.934Z,10.47
2017-10-25T08:15:05.600Z,10.80
2017-10-25T08:17:33.101Z,10.03
2017-10-25T08:20:00.648Z,10.13
2017-10-25T08:22:28.167Z,9.50
2017-10-25T08:24:56.471Z,9.93
2017-10-25T08:27:24.009Z,10.50
2017-10-25T08:29:52.725Z,9.77
2017-10-25T08:32:20.341Z,11.50
2017-10-25T08:34:48.719Z,10.20
2017-10-25T08:37:17.852Z,9.83
2017-10-25T08:39:45.741Z,10.30
2017-10-25T08:42:13.456Z,9.23
2017-10-25T08:44:41.748Z,10.00
2017-10-25T08:47:09.253Z,11.27
2017-10-25T08:49:36.760Z,9.70
2017-10-25T08:52:04.288Z,10.50
2017-10-25T08:54:33.297Z,10.40
2017-10-25T08:57:01.613Z,10.30
2017-10-25T08:59:29.132Z,9.80
2017-10-25T09:01:57.419Z,8.73
2017-10-25T09:04:24.972Z,9.50
2017-10-25T09:06:53.677Z,7.80
2017-10-25T09:09:21.702Z,9.00
2017-10-25T09:11:49.223Z,9.47
2017-10-25T09:14:16.745Z,9.43
2017-10-25T09:16:44.288Z,10.70
2017-10-25T09:19:11.835Z,11.00
2017-10-25T09:21:39.413Z,10.50
2017-10-25T09:24:07.704Z,10.70
2017-10-25T09:26:35.271Z,10.00
2017-10-25T09:29:02.795Z,9.83
2017-10-25T09:31:31.325Z,9.93
2017-10-25T09:34:00.612Z,10.23
2017-10-25T09:36:28.964Z,9.33
2017-10-25T09:38:57.342Z,10.20
2017-10-25T09:41:24.900Z,10.57
2017-10-25T09:43:52.424Z,8.73
2017-10-25T09:46:19.937Z,9.77
2017-10-25T09:48:50.093Z,8.47
2017-10-25T09:51:18.437Z,9.50
2017-10-25T09:53:45.964Z,9.10
2017-10-25T09:56:14.789Z,9.43
2017-10-25T09:58:44.423Z,9.70
2017-10-25T10:01:14.287Z,8.93
2017-10-25T10:03:42.878Z,8.53
2017-10-25T10:06:11.142Z,8.80
2017-10-25T10:08:39.493Z,8.60
2017-10-25T10:11:07.804Z,8.60
2017-10-25T10:13:35.396Z,8.93
2017-10-25T10:16:02.929Z,8.73
2017-10-25T10:18:31.270Z,9.60
2017-10-25T10:20:59.088Z,8.80
2017-10-25T10:23:26.952Z,8.83
2017-10-25T10:25:55.258Z,10.40
2017-10-25T10:28:22.919Z,9.83
2017-10-25T10:30:50.463Z,9.23
2017-10-25T10:33:17.988Z,9.50
2017-10-25T10:35:45.924Z,9.37
2017-10-25T10:38:15.153Z,9.20
2017-10-25T10:40:44.318Z,8.60
2017-10-25T10:43:12.138Z,10.40
2017-10-25T10:45:40.776Z,9.37
2017-10-25T10:48:08.308Z,9.10
2017-10-25T10:50:37.907Z,9.47
2017-10-25T10:53:06.244Z,9.30
2017-10-25T10:55:35.123Z,9.80
2017-10-25T10:58:04.572Z,9.10
2017-10-25T11:00:33.297Z,9.93
2017-10-25T11:03:00.797Z,9.50
2017-10-25T11:05:29.512Z,10.20
2017-10-25T11:07:57.592Z,9.80
2017-10-25T11:10:26.526Z,10.77
2017-10-25T11:12:55.724Z,10.50
2017-10-25T11:15:24.013Z,10.20
2017-10-25T11:17:52.160Z,11.60
2017-10-25T11:20:19.676Z,9.90
2017-10-25T11:22:47.265Z,10.90
2017-10-25T11:25:15.289Z,11.20
2017-10-25T11:27:44.325Z,10.60
2017-10-25T11:30:12.108Z,11.40
2017-10-25T11:32:40.872Z,12.20
2017-10-25T11:35:09.776Z,10.70
2017-10-25T11:37:39.078Z,11.33
2017-10-25T11:40:06.599Z,12.73
2017-10-25T11:42:34.129Z,12.53
2017-10-25T11:45:02.472Z,12.93
2017-10-25T11:47:30.020Z,12.03
2017-10-25T11:49:57.529Z,13.90
2017-10-25T11:52:25.593Z,12.70
2017-10-25T11:54:53.205Z,12.70
2017-10-25T11:57:20.712Z,12.23
2017-10-25T11:59:49.800Z,12.27
2017-10-25T12:02:17.778Z,12.23
2017-10-25T12:04:45.467Z,12.87
2017-10-25T12:07:13.091Z,12.30
2017-10-25T12:09:40.772Z,13.10
2017-10-25T12:12:08.309Z,12.67
2017-10-25T12:14:37.207Z,13.83
2017-10-25T12:17:05.487Z,14.40
2017-10-25T12:19:33.070Z,14.87
2017-10-25T12:22:00.872Z,15.13
2017-10-25T12:24:28.435Z,16.40
2017-10-25T12:26:55.992Z,13.53
2017-10-25T12:29:23.634Z,13.33
2017-10-25T12:31:51.201Z,13.17
2017-10-25T12:34:19.577Z,13.33
2017-10-25T12:36:47.356Z,12.67
2017-10-25T12:39:15.024Z,12.07
2017-10-25T12:41:44.395Z,11.43
2017-10-25T12:44:12.184Z,11.97
2017-10-25T12:46:40.514Z,11.57
2017-10-25T12:49:08.815Z,11.90
2017-10-25T12:51:38.037Z,12.00
2017-10-25T12:54:06.723Z,11.80
2017-10-25T12:56:35.916Z,11.00
2017-10-25T12:59:03.787Z,11.27
2017-10-25T13:01:33.092Z,11.90
2017-10-25T13:04:00.688Z,10.60
2017-10-25T13:06:31.075Z,11.40
2017-10-25T13:08:59.071Z,10.13
2017-10-25T13:11:42.392Z,11.47
2017-10-25T13:14:35.788Z,10.23
2017-10-25T13:17:21.261Z,10.70
2017-10-25T13:19:50.007Z,10.33
2017-10-25T13:22:18.591Z,10.10
2017-10-25T13:24:46.195Z,11.13
2017-10-25T13:27:13.742Z,10.20
2017-10-25T13:29:41.576Z,10.87
2017-10-25T13:32:09.158Z,12.27
2017-10-25T13:34:36.689Z,9.80
2017-10-25T13:37:04.279Z,11.63
2017-10-25T13:39:31.970Z,10.70
2017-10-25T13:42:00.499Z,10.33
2017-10-25T13:44:28.366Z,12.03
2017-10-25T13:46:56.032Z,11.20
2017-10-25T13:49:23.611Z,9.93
2017-10-25T13:51:51.403Z,11.43
2017-10-25T13:54:19.463Z,11.23
2017-10-25T13:56:47.991Z,10.90
2017-10-25T13:59:15.526Z,10.63
2017-10-25T14:01:44.137Z,9.97
2017-10-25T14:04:12.072Z,10.67
2017-10-25T14:06:39.831Z,9.50
2017-10-25T14:09:08.226Z,10.13
2017-10-25T14:11:37.062Z,10.50
2017-10-25T14:14:05.738Z,10.70
2017-10-25T14:16:33.408Z,8.70
2017-10-25T14:19:00.996Z,9.53
2017-10-25T14:21:29.236Z,9.83
2017-10-25T14:23:57.701Z,10.60
2017-10-25T14:26:38.486Z,11.77
2017-10-25T14:29:07.173Z,9.93
2017-10-25T14:31:36.186Z,9.97
2017-10-25T14:34:04.852Z,9.67
2017-10-25T14:36:33.203Z,10.70
2017-10-25T14:39:01.814Z,10.33
2017-10-25T14:41:29.987Z,10.27
2017-10-25T14:43:57.957Z,9.77
2017-10-25T14:46:26.234Z,9.00
2017-10-25T14:48:55.740Z,8.77
2017-10-25T14:51:26.687Z,9.80
2017-10-25T14:53:57.089Z,9.70
2017-10-25T14:56:25.689Z,8.77
2017-10-25T14:58:53.392Z,8.37
2017-10-25T15:01:21.798Z,8.50
2017-10-25T15:03:49.702Z,8.60
2017-10-25T15:06:18.381Z,9.40
2017-10-25T15:08:46.835Z,9.03
2017-10-25T15:11:14.837Z,9.27
2017-10-25T15:13:42.645Z,7.73
2017-10-25T15:16:12.207Z,9.30
2017-10-25T15:18:41.200Z,9.50
2017-10-25T15:21:09.886Z,9.53
2017-10-25T15:23:38.474Z,9.23
2017-10-25T15:26:06.644Z,9.50
2017-10-25T15:28:34.613Z,10.10
2017-10-25T15:31:03.345Z,9.60
2017-10-25T15:33:32.065Z,9.93
2017-10-25T15:36:00.466Z,10.47
2017-10-25T15:38:28.332Z,9.70
2017-10-25T15:40:56.206Z,9.57
2017-10-25T15:43:26.993Z,9.40
2017-10-25T15:46:01.699Z,11.60
2017-10-25T15:48:33.237Z,9.80
2017-10-25T15:51:07.300Z,10.30
2017-10-25T15:53:36.053Z,8.63
2017-10-25T15:56:08.665Z,11.30
2017-10-25T15:58:37.286Z,12.77
2017-10-25T16:01:06.652Z,12.70
2017-10-25T16:03:50.244Z,11.90
2017-10-25T16:06:21.123Z,12.77
2017-10-25T16:08:50.077Z,11.83
2017-10-25T16:11:21.593Z,12.23
2017-10-25T16:13:50.489Z,12.10
2017-10-25T16:16:20.938Z,12.20
2017-10-25T16:18:49.897Z,14.07
2017-10-25T16:21:18.789Z,13.23
2017-10-25T16:23:52.571Z,14.00
2017-10-25T16:26:20.839Z,13.07
2017-10-25T16:28:49.507Z,11.83
2017-10-25T16:31:19.881Z,12.50
2017-10-25T16:34:02.473Z,13.27
2017-10-25T16:36:33.022Z,13.53
2017-10-25T16:39:01.943Z,11.63
2017-10-25T16:41:30.459Z,12.40
2017-10-25T16:43:58.416Z,12.20
2017-10-25T16:46:27.066Z,11.17
2017-10-25T16:48:54.930Z,11.40
2017-10-25T16:51:22.798Z,11.47
2017-10-25T16:53:51.281Z,11.50
2017-10-25T16:56:20.681Z,11.43
2017-10-25T16:58:49.451Z,11.50
2017-10-25T17:01:18.870Z,11.63
2017-10-25T17:03:48.370Z,10.10
2017-10-25T17:06:17.679Z,10.80
2017-10-25T17:08:46.466Z,10.50
2017-10-25T17:11:15.153Z,10.50
2017-10-25T17:13:45.154Z,11.63
2017-10-25T17:16:12.934Z,9.90
2017-10-25T17:18:41.516Z,10.03
2017-10-25T17:21:09.212Z,10.60
2017-10-25T17:23:37.969Z,10.17
2017-10-25T17:26:05.734Z,10.70
2017-10-25T17:28:34.112Z,9.70
2017-10-25T17:31:01.805Z,10.40
2017-10-25T17:33:29.845Z,11.43
2017-10-25T17:35:58.532Z,9.87
2017-10-25T17:38:26.192Z,9.53
2017-10-25T17:40:53.884Z,9.43
2017-10-25T17:43:22.238Z,9.40
2017-10-25T17:45:51.334Z,10.30
2017-10-25T17:48:19.164Z,9.23
2017-10-25T17:50:47.284Z,9.60
2017-10-25T17:53:15.186Z,11.30
2017-10-25T17:55:43.823Z,10.20
2017-10-25T17:58:11.689Z,10.53
2017-10-25T18:00:39.297Z,9.97
2017-10-25T18:03:08.143Z,10.93
2017-10-25T18:05:36.821Z,9.47
2017-10-25T18:08:05.409Z,9.00
2017-10-25T18:10:33.275Z,9.50
2017-10-25T18:13:01.449Z,9.27
2017-10-25T18:15:28.958Z,11.30
2017-10-25T18:17:57.263Z,9.83
2017-10-25T18:20:25.881Z,10.23
2017-10-25T18:22:53.433Z,11.10
2017-10-25T18:25:22.422Z,10.87
2017-10-25T18:27:50.379Z,11.30
2017-10-25T18:30:18.379Z,11.60
2017-10-25T18:32:46.744Z,10.37
2017-10-25T18:35:14.295Z,11.37
2017-10-25T18:37:41.882Z,11.10
2017-10-25T18:40:09.437Z,12.10
2017-10-25T18:42:36.991Z,10.50
2017-10-25T18:45:04.505Z,10.50
2017-10-25T18:47:32.387Z,10.13
2017-10-25T18:49:59.911Z,11.03
2017-10-25T18:52:28.557Z,11.87
2017-10-25T18:54:57.377Z,10.97
2017-10-25T18:57:24.954Z,10.20
2017-10-25T18:59:53.141Z,11.63
2017-10-25T19:02:20.716Z,11.57
2017-10-25T19:04:50.341Z,11.20
2017-10-25T19:07:17.901Z,11.50
2017-10-25T19:09:46.485Z,12.23
2017-10-25T19:12:14.027Z,11.77
2017-10-25T19:14:41.540Z,10.60
2017-10-25T19:17:09.559Z,10.70
2017-10-25T19:19:37.544Z,10.43
2017-10-25T19:22:06.051Z,10.93
2017-10-25T19:24:35.028Z,12.37
2017-10-25T19:27:04.810Z,13.90
2017-10-25T19:29:33.617Z,14.97
2017-10-25T19:32:01.161Z,14.13
2017-10-25T19:34:29.452Z,12.90
2017-10-25T19:36:57.407Z,14.30
2017-10-25T19:39:26.615Z,14.40
2017-10-25T19:41:55.416Z,13.50
2017-10-25T19:44:23.580Z,12.87
2017-10-25T19:46:51.449Z,13.40
2017-10-25T19:49:19.928Z,11.80
2017-10-25T19:51:47.605Z,13.00
2017-10-25T19:54:15.778Z,12.87
2017-10-25T19:56:43.307Z,12.87
2017-10-25T19:59:12.829Z,14.23
2017-10-25T20:01:41.563Z,14.00
2017-10-25T20:04:16.572Z,14.03
2017-10-25T20:06:44.313Z,13.03
2017-10-25T20:09:13.395Z,13.17
2017-10-25T20:11:41.828Z,13.90
2017-10-25T20:14:09.672Z,15.77
2017-10-25T20:16:37.610Z,16.70
2017-10-25T20:19:06.291Z,15.97
2017-10-25T20:21:34.635Z,15.90
2017-10-25T20:24:02.870Z,14.20
2017-10-25T20:26:31.061Z,14.80
2017-10-25T20:28:59.528Z,14.73
2017-10-25T20:31:28.523Z,14.07
2017-10-25T20:33:56.079Z,14.50
2017-10-25T20:36:23.602Z,14.67
2017-10-25T20:38:51.917Z,14.07
2017-10-25T20:41:20.793Z,13.17
2017-10-25T20:43:48.345Z,12.97
2017-10-25T20:46:15.919Z,13.57
2017-10-25T20:48:44.149Z,12.20
2017-10-25T20:51:11.724Z,12.20
2017-10-25T20:53:39.272Z,12.67
2017-10-25T20:56:07.554Z,11.67
2017-10-25T20:58:35.074Z,11.87
2017-10-25T21:01:03.096Z,13.40
2017-10-25T21:03:32.373Z,12.10
2017-10-25T21:06:00.777Z,11.60
2017-10-25T21:08:28.305Z,9.90
2017-10-25T21:10:57.568Z,10.87
2017-10-25T21:13:25.638Z,10.57
2017-10-25T21:15:53.994Z,10.03
2017-10-25T21:18:23.325Z,10.10
2017-10-25T21:20:50.860Z,11.03
2017-10-25T21:23:18.399Z,9.13
2017-10-25T21:25:47.530Z,9.60
2017-10-25T21:28:15.101Z,8.73
2017-10-25T21:30:42.605Z,9.97
2017-10-25T21:33:12.430Z,9.57
2017-10-25T21:35:39.932Z,8.90
2017-10-25T21:38:07.614Z,9.60
2017-10-25T21:40:35.183Z,9.13
2017-10-25T21:43:02.700Z,9.03
2017-10-25T21:45:30.236Z,9.80
2017-10-25T21:47:57.792Z,8.90
2017-10-25T21:50:25.314Z,8.30
2017-10-25T21:52:54.636Z,8.27
2017-10-25T21:55:22.206Z,9.10
2017-10-25T21:57:50.248Z,8.47
2017-10-25T22:00:19.024Z,8.77
2017-10-25T22:02:47.509Z,8.77
2017-10-25T22:05:15.376Z,8.07
2017-10-25T22:07:43.859Z,8.67
2017-10-25T22:10:11.456Z,9.10
2017-10-25T22:12:39.741Z,8.97
2017-10-25T22:15:07.630Z,9.80
2017-10-25T22:17:36.133Z,9.93
2017-10-25T22:20:04.977Z,9.87
2017-10-25T22:22:33.006Z,10.50
2017-10-25T22:25:01.283Z,9.83
2017-10-25T22:27:30.412Z,9.80
2017-10-25T22:29:58.932Z,9.60
2017-10-25T22:32:28.583Z,10.47
2017-10-25T22:34:56.112Z,10.60
2017-10-25T22:37:23.624Z,11.10
2017-10-25T22:39:51.195Z,10.63
2017-10-25T22:42:19.499Z,11.40
2017-10-25T22:44:48.384Z,11.00
2017-10-25T22:47:17.005Z,11.50
2017-10-25T22:49:45.299Z,10.97
2017-10-25T22:52:13.640Z,12.00
2017-10-25T22:54:41.156Z,12.13
2017-10-25T22:57:08.747Z,11.83
2017-10-25T22:59:36.371Z,12.07
2017-10-25T23:02:04.647Z,12.10
2017-10-25T23:04:32.165Z,13.53
2017-10-25T23:06:59.688Z,13.77
2017-10-25T23:09:27.208Z,13.03
2017-10-25T23:11:55.523Z,12.83
2017-10-25T23:14:23.415Z,14.43
2017-10-25T23:16:51.847Z,14.57
2017-10-25T23:19:19.358Z,14.00
2017-10-25T23:21:46.916Z,14.27
2017-10-25T23:24:14.448Z,14.13
2017-10-25T23:26:41.998Z,14.43
2017-10-25T23:29:09.788Z,13.17
2017-10-25T23:31:37.309Z,13.77
2017-10-25T23:34:04.855Z,12.03
2017-10-25T23:36:33.156Z,12.47
2017-10-25T23:39:00.653Z,11.63
2017-10-25T23:41:28.243Z,11.73
2017-10-25T23:43:56.560Z,10.97
2017-10-25T23:46:24.093Z,13.33
2017-10-25T23:48:51.619Z,12.00
2017-10-25T23:51:19.140Z,10.47
2017-10-25T23:53:46.702Z,10.57
2017-10-25T23:56:14.562Z,11.30
2017-10-25T23:58:42.160Z,10.60
